Time;durP1;ratioP1;P1;durP2;ratioP2;P2;SDS_P1;SDS_P2;PMS_P1;PMS_P2;Temp;Humidity;BMP_temperature;BMP_pressure;BME280_temperature;BME280_humidity;BME280_pressure;Samples;Min_cycle;Max_cycle;Signal;HPM_P1;HPM_P2
2022/01/02 11:59:15;;;;;;;;;4.00;4.00;;;;;17.48;54.73;101451.69;5110919;27;1315695;-59
2022/01/02 12:01:49;;;;;;;;;8.00;6.75;;;;;16.64;57.46;101431.66;5138080;27;45309;-59
2022/01/02 12:04:14;;;;;;;;;5.00;4.75;;;;;16.16;58.84;101443.53;5124336;27;45391;-59
2022/01/02 12:06:42;;;;;;;;;4.00;3.00;;;;;15.79;60.66;101451.03;5137420;27;45292;-59
2022/01/02 12:09:38;;;;;;;;;5.75;5.00;;;;;15.60;61.39;101449.44;5137797;27;47270;-59
2022/01/02 12:12:06;;;;;;;;;4.25;4.25;;;;;15.51;61.39;101442.66;5137562;27;45437;-59
2022/01/02 12:14:31;;;;;;;;;5.00;4.00;;;;;15.33;62.38;101449.06;5137777;27;45358;-57
2022/01/02 12:17:09;;;;;;;;;6.75;4.00;;;;;15.21;62.42;101442.53;5137309;27;45444;-59
2022/01/02 12:19:59;;;;;;;;;5.00;3.50;;;;;15.11;63.30;101438.56;5137404;27;46361;-59
2022/01/02 12:22:39;;;;;;;;;5.00;4.00;;;;;14.95;63.94;101418.75;5124286;27;45255;-59
2022/01/02 12:25:17;;;;;;;;;4.75;4.50;;;;;14.92;63.22;101408.97;5137635;27;45457;-59
2022/01/02 12:27:52;;;;;;;;;4.75;4.75;;;;;14.96;64.53;101423.19;5137483;27;45388;-58
2022/01/02 12:30:18;;;;;;;;;6.25;3.75;;;;;14.90;64.31;101423.50;5123319;27;46977;-59
2022/01/02 12:32:46;;;;;;;;;2.25;2.00;;;;;14.80;65.12;101419.56;5137273;27;45273;-58
2022/01/02 12:35:12;;;;;;;;;12.75;5.00;;;;;14.75;65.00;101417.97;5118896;27;45294;-59
2022/01/02 12:37:37;;;;;;;;;4.75;4.00;;;;;14.81;64.74;101408.66;5136897;27;45693;-57
2022/01/02 12:40:04;;;;;;;;;6.25;4.75;;;;;14.88;64.79;101409.22;5137356;27;46000;-59
2022/01/02 12:42:29;;;;;;;;;4.00;4.00;;;;;14.90;65.24;101408.16;5137206;27;45353;-60
2022/01/02 12:44:55;;;;;;;;;9.75;4.50;;;;;14.88;64.86;101391.22;5137314;27;45503;-59
2022/01/02 12:47:24;;;;;;;;;4.75;4.75;;;;;14.86;65.26;101389.53;5137262;27;45346;-59
2022/01/02 12:49:55;;;;;;;;;4.75;4.75;;;;;14.84;64.53;101380.63;5136631;27;46500;-57
2022/01/02 12:52:21;;;;;;;;;4.75;4.75;;;;;14.88;65.13;101390.34;5136777;27;45537;-59
2022/01/02 12:54:50;;;;;;;;;6.25;5.00;;;;;14.83;64.98;101384.28;5137034;27;45280;-60
2022/01/02 12:57:18;;;;;;;;;4.00;3.00;;;;;14.87;65.38;101396.69;5136378;27;45262;-59
2022/01/02 12:59:45;;;;;;;;;6.25;3.25;;;;;14.72;65.63;101364.13;5136994;27;45392;-59
2022/01/02 13:02:15;;;;;;;;;7.00;4.25;;;;;14.65;65.96;101381.59;5136552;27;45329;-59
2022/01/02 13:04:49;;;;;;;;;4.25;4.00;;;;;14.64;66.08;101382.56;5137123;27;45317;-58
2022/01/02 13:07:21;;;;;;;;;4.75;3.00;;;;;14.54;66.24;101364.25;5117986;27;46270;-60
2022/01/02 13:09:52;;;;;;;;;4.00;3.00;;;;;14.61;66.36;101393.53;5092173;27;47080;-61
2022/01/02 13:12:19;;;;;;;;;7.25;4.00;;;;;14.52;66.96;101375.13;5122823;27;45400;-60
2022/01/02 13:14:46;;;;;;;;;5.00;3.50;;;;;14.57;66.25;101373.03;5123281;27;45341;-59
2022/01/02 13:17:14;;;;;;;;;5.25;4.00;;;;;14.72;66.56;101369.53;5122483;27;45539;-59
2022/01/02 13:20:00;;;;;;;;;5.25;4.00;;;;;14.75;66.44;101372.06;5122687;27;45354;-58
2022/01/02 13:22:28;;;;;;;;;6.00;2.00;;;;;14.76;65.55;101363.03;5122701;27;46406;-59
2022/01/02 13:24:56;;;;;;;;;5.25;3.00;;;;;14.85;65.28;101374.28;5113304;27;45240;-60
2022/01/02 13:27:25;;;;;;;;;4.00;3.00;;;;;14.81;65.57;101362.78;5110956;27;45585;-58
2022/01/02 13:29:57;;;;;;;;;3.00;3.00;;;;;14.94;65.07;101368.41;5122467;27;45353;-60
2022/01/02 13:32:23;;;;;;;;;4.00;4.00;;;;;14.98;65.04;101369.97;5104314;27;45303;-60
2022/01/02 13:35:07;;;;;;;;;2.25;2.00;;;;;15.00;65.02;101358.13;5122935;27;45366;-60
2022/01/02 13:37:43;;;;;;;;;2.50;2.50;;;;;14.98;65.09;101369.97;5121946;27;45344;-59
2022/01/02 13:40:18;;;;;;;;;5.00;3.00;;;;;14.97;64.82;101365.53;5122557;27;46056;-59
2022/01/02 13:42:45;;;;;;;;;3.00;3.00;;;;;14.86;64.81;101341.81;5103894;27;45328;-60
2022/01/02 13:45:17;;;;;;;;;3.00;3.00;;;;;15.03;65.09;101363.38;5122736;27;45429;-59
2022/01/02 13:47:44;;;;;;;;;3.00;3.00;;;;;15.02;64.99;101352.66;5103540;27;46047;-60
2022/01/02 13:50:29;;;;;;;;;3.25;1.50;;;;;14.95;65.00;101352.13;5121824;27;45415;-60
2022/01/02 13:52:58;;;;;;;;;4.75;1.00;;;;;15.05;64.40;101347.97;5121786;27;45355;-60
2022/01/02 13:55:35;;;;;;;;;2.25;1.25;;;;;15.15;64.19;101334.81;5122402;27;45738;-59
2022/01/02 13:58:15;;;;;;;;;3.00;3.00;;;;;15.24;63.89;101360.44;5121819;27;45487;-59
2022/01/02 14:00:46;;;;;;;;;3.75;2.00;;;;;15.35;63.85;101376.94;5117112;27;46050;-60
2022/01/02 14:03:28;;;;;;;;;7.00;3.00;;;;;15.32;63.94;101380.66;5098391;27;45476;-59
2022/01/02 14:05:54;;;;;;;;;2.75;2.00;;;;;15.43;63.40;101375.53;5104247;27;45772;-59
2022/01/02 14:08:20;;;;;;;;;3.75;2.00;;;;;15.39;63.09;101379.38;5121444;27;45530;-60
2022/01/02 14:10:46;;;;;;;;;4.75;3.00;;;;;15.47;63.61;101390.63;5103191;27;46909;-60
2022/01/02 14:13:17;;;;;;;;;2.00;2.00;;;;;15.52;63.30;101393.06;5103132;27;45375;-60
2022/01/02 14:15:52;;;;;;;;;1.75;1.75;;;;;15.40;63.09;101380.22;5115889;27;45559;-59
2022/01/02 14:18:27;;;;;;;;;3.75;3.75;;;;;15.44;63.36;101380.00;5117169;27;45617;-60
2022/01/02 14:21:00;;;;;;;;;6.00;1.00;;;;;15.40;63.49;101374.81;5120509;27;46369;-60
2022/01/02 14:23:25;;;;;;;;;2.75;1.75;;;;;15.34;63.71;101365.25;5120938;27;45434;-59
2022/01/02 14:25:51;;;;;;;;;4.00;1.00;;;;;15.36;63.59;101373.28;5119019;27;45301;-60
2022/01/02 14:28:18;;;;;;;;;6.25;2.75;;;;;15.43;63.87;101370.13;5104669;27;45438;-58
2022/01/02 14:30:43;;;;;;;;;2.00;1.00;;;;;15.50;63.40;101366.13;5120053;27;46657;-58
2022/01/02 14:33:08;;;;;;;;;2.25;2.00;;;;;15.62;63.14;101371.84;5121018;27;45331;-60
2022/01/02 14:35:35;;;;;;;;;4.50;1.75;;;;;15.65;62.61;101366.28;5121764;27;45444;-61
2022/01/02 14:38:00;;;;;;;;;2.00;2.00;;;;;15.64;62.55;101349.19;5120719;27;45505;-59
2022/01/02 14:40:26;;;;;;;;;4.50;3.00;;;;;15.49;62.70;101326.53;5120786;27;46088;-59
2022/01/02 14:42:51;;;;;;;;;3.50;1.00;;;;;15.55;62.80;101332.63;5121015;27;45318;-59
2022/01/02 14:45:16;;;;;;;;;1.50;1.00;;;;;15.58;62.67;101345.94;5121517;27;45425;-61
2022/01/02 14:47:42;;;;;;;;;1.00;1.00;;;;;15.61;62.65;101379.06;5121064;27;45381;-61
2022/01/02 14:50:11;;;;;;;;;1.00;1.00;;;;;15.55;62.99;101392.06;5112337;27;45549;-59
2022/01/02 14:52:37;;;;;;;;;2.25;0.50;;;;;15.54;62.89;101374.09;5101027;27;45470;-60
2022/01/02 14:55:05;;;;;;;;;3.75;1.00;;;;;15.41;63.43;101353.13;5121119;27;45568;-60
2022/01/02 14:57:30;;;;;;;;;1.50;1.50;;;;;15.31;63.58;101362.69;5120327;27;45420;-60
2022/01/02 14:59:58;;;;;;;;;1.00;1.00;;;;;15.27;63.74;101369.25;5120091;27;46228;-59
2022/01/02 15:02:23;;;;;;;;;1.25;0.00;;;;;15.18;63.86;101374.28;5102371;27;45411;-60
2022/01/02 15:04:49;;;;;;;;;2.00;2.00;;;;;15.20;64.60;101367.84;5119418;27;45334;-59
2022/01/02 15:07:14;;;;;;;;;2.50;1.50;;;;;15.22;63.89;101376.75;5118821;27;45680;-60
2022/01/02 15:09:39;;;;;;;;;1.00;1.00;;;;;15.15;64.55;101348.31;5103222;27;46287;-60
2022/01/02 15:12:05;;;;;;;;;4.00;2.00;;;;;15.18;64.29;101379.69;5117381;27;45501;-61
2022/01/02 15:14:30;;;;;;;;;0.50;0.50;;;;;15.05;64.83;101353.38;5119462;27;45377;-60
2022/01/02 15:16:56;;;;;;;;;3.00;0.75;;;;;15.06;64.80;101368.59;5118721;27;45433;-59
2022/01/02 15:19:21;;;;;;;;;1.75;1.00;;;;;15.11;64.70;101366.53;5118392;27;46873;-60
2022/01/02 15:21:47;;;;;;;;;3.00;1.00;;;;;15.13;64.57;101374.56;5118705;27;45340;-60
2022/01/02 15:24:14;;;;;;;;;2.00;2.00;;;;;15.10;65.34;101372.88;5119306;27;45495;-59
2022/01/02 15:26:40;;;;;;;;;1.00;1.00;;;;;15.10;65.09;101370.19;5107442;27;45669;-61
2022/01/02 15:29:06;;;;;;;;;2.00;1.00;;;;;15.02;65.39;101368.84;5118125;27;46599;-60
2022/01/02 15:31:31;;;;;;;;;1.00;1.00;;;;;14.98;65.46;101367.25;5118234;27;45392;-60
2022/01/02 15:33:57;;;;;;;;;1.50;1.00;;;;;14.92;65.23;101349.56;5118053;27;45467;-60
2022/01/02 15:36:23;;;;;;;;;1.00;1.00;;;;;14.74;65.79;101334.38;5118662;27;45903;-61
2022/01/02 15:38:48;;;;;;;;;2.00;1.00;;;;;14.76;66.37;101348.66;5099801;27;46946;-60
2022/01/02 15:41:13;;;;;;;;;1.00;1.00;;;;;14.77;66.18;101353.09;5118456;27;45338;-60
2022/01/02 15:43:39;;;;;;;;;3.00;2.00;;;;;14.67;66.67;101368.03;5118403;27;45566;-60
2022/01/02 15:46:04;;;;;;;;;2.75;1.75;;;;;14.59;66.58;101359.47;5116468;27;45348;-60
2022/01/02 15:48:30;;;;;;;;;3.00;1.00;;;;;14.59;66.85;101338.75;5108023;27;46435;-61
2022/01/02 15:50:56;;;;;;;;;1.00;1.00;;;;;14.53;66.42;101327.44;5118163;27;45329;-60
2022/01/02 15:53:21;;;;;;;;;2.00;1.00;;;;;14.49;66.73;101315.03;5117778;27;45307;-61
2022/01/02 15:55:47;;;;;;;;;1.00;1.00;;;;;14.60;66.42;101339.63;5118104;27;45592;-60
2022/01/02 15:58:12;;;;;;;;;2.75;2.00;;;;;14.54;66.75;101340.84;5117801;27;46941;-60
2022/01/02 16:00:38;;;;;;;;;2.00;2.00;;;;;14.56;67.12;101341.63;5118166;27;45543;-59
2022/01/02 16:03:03;;;;;;;;;1.50;1.50;;;;;14.58;66.35;101317.25;5117969;27;45462;-61
2022/01/02 16:05:29;;;;;;;;;1.75;1.75;;;;;14.60;66.86;101324.31;5118404;27;45673;-60
2022/01/02 16:07:54;;;;;;;;;3.75;1.25;;;;;14.49;66.99;101332.09;5119238;27;46950;-60
2022/01/02 16:10:20;;;;;;;;;3.00;2.00;;;;;14.55;66.79;101339.88;5119869;27;45250;-60
2022/01/02 16:12:45;;;;;;;;;3.25;0.00;;;;;14.47;67.36;101342.09;5120386;27;45382;-61
2022/01/02 16:15:11;;;;;;;;;7.50;1.00;;;;;14.35;67.43;101329.22;5119897;27;45336;-59
2022/01/02 16:17:37;;;;;;;;;2.25;1.25;;;;;14.36;67.75;101336.38;5120128;27;45470;-60
2022/01/02 16:20:03;;;;;;;;;2.00;1.00;;;;;14.46;67.02;101343.03;5119795;27;45537;-60
2022/01/02 16:22:28;;;;;;;;;1.00;0.00;;;;;14.36;67.69;101353.44;5119788;27;45352;-60
2022/01/02 16:24:54;;;;;;;;;4.75;3.00;;;;;14.40;67.52;101354.16;5119761;27;45223;-60
2022/01/02 16:27:21;;;;;;;;;8.25;3.00;;;;;14.42;67.64;101373.84;5119766;27;45338;-59
2022/01/02 16:29:46;;;;;;;;;1.00;1.00;;;;;14.42;67.40;101378.38;5119822;27;45573;-59
2022/01/02 16:32:12;;;;;;;;;3.50;2.50;;;;;14.38;67.88;101372.22;5119778;27;45345;-57
2022/01/02 16:34:37;;;;;;;;;3.75;2.25;;;;;14.31;67.39;101344.69;5119723;27;46338;-58
2022/01/02 16:37:02;;;;;;;;;4.25;1.75;;;;;14.30;67.56;101351.03;5119633;27;45548;-58
2022/01/02 16:39:28;;;;;;;;;4.75;1.00;;;;;14.33;67.32;101347.31;5119926;27;45373;-56
2022/01/02 16:41:53;;;;;;;;;4.50;1.00;;;;;14.48;67.49;101375.34;5120098;27;45754;-58
2022/01/02 16:44:19;;;;;;;;;8.25;2.00;;;;;14.43;67.33;101350.44;5120511;27;45459;-60
2022/01/02 16:46:45;;;;;;;;;5.50;1.75;;;;;14.41;67.26;101349.66;5123366;27;46064;-59
2022/01/02 16:49:12;;;;;;;;;2.25;2.00;;;;;14.47;67.03;101360.97;5123247;27;45350;-58
2022/01/02 16:51:37;;;;;;;;;5.00;2.75;;;;;14.48;67.36;101369.94;5123321;27;45377;-58
2022/01/02 16:54:02;;;;;;;;;4.50;3.00;;;;;14.46;67.41;101364.63;5122899;27;45532;-59
2022/01/02 16:56:28;;;;;;;;;2.50;2.25;;;;;14.38;67.07;101331.75;5123325;27;45359;-59
2022/01/02 16:58:55;;;;;;;;;3.00;3.00;;;;;14.50;67.01;101341.06;5122908;27;45269;-57
2022/01/02 17:01:21;;;;;;;;;1.50;1.00;;;;;14.45;67.25;101344.03;5123480;27;45327;-58
2022/01/02 17:03:46;;;;;;;;;3.00;2.00;;;;;14.39;67.63;101341.63;5122765;27;45288;-56
2022/01/02 17:06:12;;;;;;;;;6.25;2.00;;;;;14.47;67.18;101343.91;5122578;27;46121;-56
2022/01/02 17:08:38;;;;;;;;;4.50;3.00;;;;;14.45;67.66;101349.41;5122850;27;45768;-59
2022/01/02 17:11:05;;;;;;;;;4.00;2.00;;;;;14.36;67.47;101347.16;5123021;27;45565;-59
2022/01/02 17:13:31;;;;;;;;;2.50;1.75;;;;;14.36;67.56;101339.94;5122924;27;45380;-60
2022/01/02 17:15:56;;;;;;;;;2.75;1.00;;;;;14.21;68.00;101315.56;5122555;27;46162;-59
2022/01/02 17:18:23;;;;;;;;;3.50;2.75;;;;;14.25;67.65;101320.75;5122852;27;45395;-60
2022/01/02 17:20:48;;;;;;;;;1.75;1.75;;;;;14.29;67.72;101316.06;5123077;27;45329;-61
2022/01/02 17:23:13;;;;;;;;;7.75;2.25;;;;;14.25;67.71;101306.38;5122363;27;45172;-60
2022/01/02 17:25:40;;;;;;;;;4.75;3.00;;;;;14.33;67.66;101317.66;5104165;27;48183;-59
2022/01/02 17:28:06;;;;;;;;;2.50;2.00;;;;;14.31;67.30;101338.41;5122640;27;45184;-59
2022/01/02 17:30:34;;;;;;;;;3.00;2.00;;;;;14.26;67.42;101311.72;5121717;27;45325;-60
2022/01/02 17:33:00;;;;;;;;;3.50;2.50;;;;;14.28;67.76;101306.25;5122198;27;45497;-61
2022/01/02 17:35:26;;;;;;;;;5.25;1.50;;;;;14.30;67.54;101329.47;5122533;27;45381;-61
2022/01/02 17:37:51;;;;;;;;;4.00;2.00;;;;;14.05;67.77;101301.13;5121891;27;45412;-60
2022/01/02 17:40:18;;;;;;;;;1.00;1.00;;;;;14.24;67.32;101342.41;5122598;27;45255;-61
2022/01/02 17:42:45;;;;;;;;;4.25;2.00;;;;;14.22;67.00;101330.81;5122276;27;46156;-62
2022/01/02 17:45:10;;;;;;;;;3.25;1.50;;;;;14.22;67.06;101355.06;5122325;27;45330;-60
2022/01/02 17:47:36;;;;;;;;;3.00;2.00;;;;;14.21;66.91;101326.38;5122164;27;45315;-62
2022/01/02 17:50:05;;;;;;;;;4.75;2.00;;;;;14.08;66.96;101333.34;5122520;27;45463;-60
2022/01/02 17:52:31;;;;;;;;;1.50;1.00;;;;;14.18;66.72;101342.72;5121751;27;46303;-61
2022/01/02 17:54:56;;;;;;;;;5.00;3.00;;;;;14.18;66.49;101348.13;5122093;27;46172;-60
2022/01/02 17:57:22;;;;;;;;;4.00;2.25;;;;;14.25;66.32;101368.41;5121793;27;45275;-61
2022/01/02 17:59:47;;;;;;;;;3.00;1.00;;;;;14.27;65.88;101370.09;5122434;27;45503;-60
2022/01/02 18:02:13;;;;;;;;;2.00;1.25;;;;;14.20;65.73;101352.47;5121966;27;46247;-61
2022/01/02 18:04:38;;;;;;;;;5.25;1.00;;;;;14.26;65.94;101370.16;5122150;27;46041;-61
2022/01/02 18:07:04;;;;;;;;;4.00;1.75;;;;;14.27;65.67;101356.59;5121769;27;45246;-60
2022/01/02 18:09:34;;;;;;;;;1.75;1.25;;;;;14.29;65.25;101353.84;5122408;27;45237;-61
2022/01/02 18:11:59;;;;;;;;;2.50;1.00;;;;;14.24;65.06;101348.66;5121950;27;45452;-63
2022/01/02 18:14:25;;;;;;;;;6.00;2.50;;;;;14.19;65.87;101360.66;5121948;27;46301;-62
2022/01/02 18:16:51;;;;;;;;;2.50;1.00;;;;;14.26;65.52;101353.97;5121250;27;45385;-64
2022/01/02 18:19:17;;;;;;;;;7.50;2.75;;;;;14.21;65.51;101347.94;5122024;27;45483;-62
2022/01/02 18:21:48;;;;;;;;;4.25;2.00;;;;;14.26;65.48;101353.97;5121566;27;45397;-66
2022/01/02 18:24:24;;;;;;;;;5.00;3.00;;;;;14.20;65.59;101349.78;5120939;27;46238;-62
2022/01/02 18:26:50;;;;;;;;;1.25;1.25;;;;;14.24;65.15;101375.63;5113145;27;45344;-60
2022/01/02 18:29:16;;;;;;;;;4.50;2.00;;;;;14.20;65.38;101367.78;5116214;27;45458;-62
2022/01/02 18:31:43;;;;;;;;;6.75;3.00;;;;;14.20;65.44;101374.06;5118141;27;45303;-61
2022/01/02 18:34:08;;;;;;;;;3.50;2.00;;;;;14.17;65.54;101374.19;5121825;27;45356;-62
2022/01/02 18:36:35;;;;;;;;;3.75;2.75;;;;;14.22;65.27;101371.25;5121267;27;45332;-63
2022/01/02 18:39:01;;;;;;;;;6.50;3.25;;;;;14.26;65.37;101372.88;5121754;27;45297;-60
2022/01/02 18:41:27;;;;;;;;;2.00;2.00;;;;;14.17;65.53;101381.41;5107791;27;45325;-62
2022/01/02 18:43:53;;;;;;;;;3.25;1.00;;;;;14.20;65.70;101376.75;5121441;27;46249;-61
2022/01/02 18:46:18;;;;;;;;;4.25;2.00;;;;;14.24;65.12;101372.06;5121755;27;45585;-61
2022/01/02 18:48:44;;;;;;;;;6.00;2.50;;;;;14.32;65.33;101388.72;5121688;27;46446;-60
2022/01/02 18:51:09;;;;;;;;;0.75;0.75;;;;;14.31;64.83;101381.56;5116742;27;45604;-60
2022/01/02 18:53:35;;;;;;;;;3.75;2.00;;;;;14.26;64.92;101380.97;5120519;27;47126;-61
2022/01/02 18:56:02;;;;;;;;;9.50;2.00;;;;;14.28;64.80;101374.53;5119713;27;45295;-62
2022/01/02 18:58:28;;;;;;;;;3.50;2.00;;;;;14.14;64.90;101363.56;5119586;27;45489;-62
2022/01/02 19:00:54;;;;;;;;;4.25;2.00;;;;;14.21;65.10;101388.38;5120700;27;45363;-61
2022/01/02 19:03:20;;;;;;;;;3.75;0.50;;;;;14.22;65.05;101392.84;5120610;27;46264;-60
2022/01/02 19:05:45;;;;;;;;;6.75;3.50;;;;;14.13;64.90;101379.81;5112972;27;45234;-62
2022/01/02 19:08:10;;;;;;;;;3.50;1.00;;;;;14.24;64.90;101408.00;5118916;27;45437;-60
2022/01/02 19:10:38;;;;;;;;;2.00;1.50;;;;;14.21;64.75;101418.06;5120855;27;45292;-62
2022/01/02 19:13:05;;;;;;;;;5.00;2.00;;;;;14.19;64.21;101411.88;5120669;27;45916;-61
2022/01/02 19:15:31;;;;;;;;;3.50;1.00;;;;;14.22;64.64;101422.50;5120714;27;45519;-61
2022/01/02 19:17:56;;;;;;;;;4.50;1.75;;;;;14.26;64.04;101414.19;5102151;27;45397;-62
2022/01/02 19:20:22;;;;;;;;;1.50;1.00;;;;;14.22;64.28;101409.88;5120300;27;45307;-62
2022/01/02 19:22:47;;;;;;;;;1.25;1.00;;;;;14.15;64.77;101443.50;5120092;27;46130;-62
2022/01/02 19:25:20;;;;;;;;;8.25;1.00;;;;;14.11;64.40;101428.44;5119069;27;45356;-62
2022/01/02 19:27:47;;;;;;;;;1.50;1.50;;;;;14.14;64.65;101424.72;5118230;27;45471;-62
2022/01/02 19:30:13;;;;;;;;;2.50;2.00;;;;;14.06;64.52;101425.09;5120116;27;45566;-62
2022/01/02 19:32:39;;;;;;;;;7.25;3.00;;;;;14.09;64.58;101442.94;5114502;27;45460;-61
2022/01/02 19:35:05;;;;;;;;;3.50;2.00;;;;;14.05;64.57;101446.72;5116528;27;45265;-60
2022/01/02 19:37:30;;;;;;;;;2.25;0.75;;;;;14.11;64.62;101446.44;5113016;27;45469;-64
2022/01/02 19:39:56;;;;;;;;;2.50;1.00;;;;;14.10;64.84;101450.97;5111633;27;45554;-60
2022/01/02 19:42:21;;;;;;;;;4.00;1.75;;;;;14.08;64.48;101449.28;5118604;27;46020;-60
2022/01/02 19:44:48;;;;;;;;;5.25;1.75;;;;;14.09;64.25;101429.47;5114506;27;45452;-61
2022/01/02 19:47:14;;;;;;;;;1.50;1.00;;;;;14.04;64.41;101426.97;5114946;27;45240;-61
2022/01/02 19:49:39;;;;;;;;;6.00;3.00;;;;;14.10;64.14;101447.41;5115426;27;45478;-61
2022/01/02 19:52:07;;;;;;;;;5.25;2.25;;;;;14.10;64.67;101431.22;5111208;27;46100;-61
2022/01/02 19:54:33;;;;;;;;;2.50;2.00;;;;;14.09;64.05;101432.16;5115156;27;45598;-65
2022/01/02 19:56:58;;;;;;;;;3.00;1.00;;;;;14.02;64.18;101445.09;5117179;27;45483;-61
2022/01/02 19:59:24;;;;;;;;;3.25;1.50;;;;;13.95;64.60;101438.25;5113606;27;45298;-61
2022/01/02 20:01:50;;;;;;;;;3.25;3.25;;;;;14.01;64.47;101436.13;5117305;27;45325;-59
2022/01/02 20:04:16;;;;;;;;;4.00;2.50;;;;;13.94;64.45;101440.06;5112847;27;45295;-62
2022/01/02 20:06:42;;;;;;;;;1.75;1.75;;;;;13.99;64.66;101445.22;5112356;27;45420;-62
2022/01/02 20:09:07;;;;;;;;;6.75;2.00;;;;;13.94;64.48;101442.75;5115223;27;45413;-59
2022/01/02 20:11:33;;;;;;;;;3.00;1.00;;;;;13.99;64.76;101450.63;5117311;27;46297;-61
2022/01/02 20:13:59;;;;;;;;;2.75;2.00;;;;;13.96;64.73;101442.66;5115236;27;45165;-61
2022/01/02 20:16:24;;;;;;;;;4.75;2.00;;;;;13.99;63.79;101453.31;5117511;27;45373;-60
2022/01/02 20:18:50;;;;;;;;;5.25;2.50;;;;;13.88;64.62;101434.94;5107318;27;45651;-62
2022/01/02 20:21:15;;;;;;;;;1.25;1.00;;;;;14.01;64.22;101457.69;5120678;27;45527;-60
2022/01/02 20:23:44;;;;;;;;;1.00;0.00;;;;;13.99;64.24;101448.78;5118407;27;45433;-61
2022/01/02 20:26:11;;;;;;;;;6.75;2.25;;;;;13.97;64.09;101453.38;5121677;27;45459;-60
2022/01/02 20:28:37;;;;;;;;;2.50;1.50;;;;;13.89;64.45;101460.09;5112307;27;46171;-60
2022/01/02 20:31:03;;;;;;;;;4.50;2.00;;;;;13.94;63.93;101474.25;5120623;27;45428;-60
2022/01/02 20:33:30;;;;;;;;;8.25;1.00;;;;;13.88;64.13;101464.59;5118566;27;45344;-60
2022/01/02 20:35:55;;;;;;;;;0.00;0.00;;;;;13.91;63.59;101474.38;5122890;27;45351;-61
2022/01/02 20:38:20;;;;;;;;;5.25;1.00;;;;;13.88;64.61;101483.47;5117738;27;45821;-61
2022/01/02 20:40:46;;;;;;;;;4.25;2.25;;;;;13.84;64.06;101489.09;5122779;27;46610;-60
2022/01/02 20:43:11;;;;;;;;;8.25;1.00;;;;;13.79;64.60;101466.84;5118072;27;45373;-60
2022/01/02 20:45:37;;;;;;;;;2.50;2.00;;;;;13.84;64.47;101479.19;5118241;27;45366;-60
2022/01/02 20:48:08;;;;;;;;;8.75;2.00;;;;;13.90;64.38;101475.31;5122812;27;45523;-60
2022/01/02 20:50:35;;;;;;;;;5.50;1.25;;;;;13.96;64.37;101480.41;5112441;27;46166;-60
2022/01/02 20:53:01;;;;;;;;;2.75;1.25;;;;;13.97;64.18;101484.84;5115187;27;45406;-60
2022/01/02 20:55:26;;;;;;;;;3.25;1.00;;;;;13.84;64.33;101467.53;5113514;27;45286;-61
2022/01/02 20:57:51;;;;;;;;;5.25;1.75;;;;;13.86;64.16;101480.00;5110517;27;45484;-61
2022/01/02 21:00:17;;;;;;;;;2.25;1.25;;;;;13.82;64.11;101475.69;5120902;27;46337;-61
2022/01/02 21:02:43;;;;;;;;;5.75;2.50;;;;;13.82;64.02;101469.41;5115030;27;45463;-60
2022/01/02 21:05:09;;;;;;;;;6.25;2.25;;;;;13.88;64.13;101482.59;5122369;27;45369;-61
2022/01/02 21:07:37;;;;;;;;;6.00;2.00;;;;;13.81;64.45;101483.84;5116946;27;45458;-59
2022/01/02 21:10:03;;;;;;;;;2.00;0.25;;;;;13.80;64.31;101495.56;5120395;27;46142;-60
2022/01/02 21:12:28;;;;;;;;;2.00;2.00;;;;;13.80;64.21;101490.16;5114590;27;45317;-60
2022/01/02 21:14:54;;;;;;;;;3.75;1.75;;;;;13.90;64.31;101496.88;5122345;27;45584;-60
2022/01/02 21:17:20;;;;;;;;;2.00;2.00;;;;;13.81;64.18;101500.88;5113308;27;45608;-60
2022/01/02 21:19:46;;;;;;;;;2.50;0.00;;;;;13.69;64.44;101482.63;5113710;27;46353;-59
2022/01/02 21:22:11;;;;;;;;;1.00;1.00;;;;;13.79;64.28;101488.41;5115316;27;45507;-61
2022/01/02 21:24:37;;;;;;;;;1.50;1.00;;;;;13.71;64.44;101475.31;5120840;27;45327;-58
2022/01/02 21:27:03;;;;;;;;;6.75;1.00;;;;;13.80;64.26;101484.78;5111641;27;45542;-60
2022/01/02 21:29:29;;;;;;;;;12.50;2.00;;;;;13.68;64.34;101482.69;5119572;27;46302;-59
2022/01/02 21:31:55;;;;;;;;;5.00;3.50;;;;;13.70;63.86;101483.47;5122195;27;45260;-60
2022/01/02 21:34:21;;;;;;;;;3.00;1.25;;;;;13.68;64.05;101485.38;5122356;27;45181;-59
2022/01/02 21:36:47;;;;;;;;;1.25;1.25;;;;;13.73;63.84;101505.75;5121438;27;45412;-60
2022/01/02 21:39:12;;;;;;;;;6.25;2.00;;;;;13.72;64.16;101503.13;5122184;27;46718;-60
2022/01/02 21:41:41;;;;;;;;;3.00;1.50;;;;;13.66;64.07;101485.44;5122505;27;45354;-59
2022/01/02 21:44:07;;;;;;;;;6.25;1.75;;;;;13.64;64.31;101485.50;5122510;27;45473;-59
2022/01/02 21:46:32;;;;;;;;;3.50;0.00;;;;;13.64;64.01;101493.59;5122368;27;45560;-60
2022/01/02 21:48:59;;;;;;;;;6.00;2.00;;;;;13.57;64.71;101496.66;5122097;27;45970;-60
2022/01/02 21:51:25;;;;;;;;;2.00;2.00;;;;;13.53;64.46;101484.25;5121931;27;45159;-59
2022/01/02 21:53:53;;;;;;;;;3.75;2.00;;;;;13.55;64.77;101485.94;5121350;27;45407;-60
2022/01/02 21:56:19;;;;;;;;;3.00;3.00;;;;;13.52;64.51;101474.44;5122033;27;45837;-60
2022/01/02 21:58:46;;;;;;;;;3.75;1.00;;;;;13.61;64.46;101495.53;5121644;27;45440;-59
2022/01/02 22:01:13;;;;;;;;;5.25;2.50;;;;;13.56;64.27;101506.53;5122097;27;45325;-60
2022/01/02 22:03:39;;;;;;;;;3.50;2.00;;;;;13.56;64.03;101506.53;5121993;27;45408;-60
2022/01/02 22:06:07;;;;;;;;;5.75;1.50;;;;;13.58;64.33;101501.09;5122021;27;45582;-60
2022/01/02 22:08:34;;;;;;;;;2.25;1.00;;;;;13.58;64.38;101498.41;5121747;27;46311;-60
2022/01/02 22:11:02;;;;;;;;;3.25;1.00;;;;;13.60;64.13;101504.59;5121949;27;45341;-60
2022/01/02 22:13:27;;;;;;;;;1.00;1.00;;;;;13.43;64.18;101494.59;5122154;27;45346;-60
2022/01/02 22:15:52;;;;;;;;;2.25;0.25;;;;;13.48;64.63;101486.28;5121873;27;45334;-60
2022/01/02 22:18:19;;;;;;;;;2.75;1.00;;;;;13.47;64.32;101476.47;5121885;27;46961;-60
2022/01/02 22:20:46;;;;;;;;;2.25;0.75;;;;;13.47;64.61;101476.47;5121926;27;45365;-59
2022/01/02 22:23:15;;;;;;;;;2.25;1.25;;;;;13.47;64.47;101485.41;5107754;27;45444;-59
2022/01/02 22:25:46;;;;;;;;;4.00;0.75;;;;;13.48;64.30;101491.69;5121576;27;45706;-60
2022/01/02 22:28:12;;;;;;;;;1.75;1.00;;;;;13.39;64.72;101508.25;5121849;27;46653;-60
2022/01/02 22:30:40;;;;;;;;;5.25;2.00;;;;;13.40;64.68;101502.81;5120585;27;45353;-60
2022/01/02 22:33:05;;;;;;;;;2.25;1.25;;;;;13.32;64.53;101496.91;5121906;27;45372;-60
2022/01/02 22:35:33;;;;;;;;;8.25;1.00;;;;;13.38;64.96;101511.88;5121485;27;45371;-60
2022/01/02 22:37:59;;;;;;;;;5.00;1.00;;;;;13.20;65.05;101492.03;5121138;27;47269;-60
2022/01/02 22:40:24;;;;;;;;;5.25;2.50;;;;;13.35;64.88;101503.97;5121604;27;45614;-60
2022/01/02 22:42:50;;;;;;;;;4.25;1.50;;;;;13.39;65.07;101513.66;5102352;27;45350;-60
2022/01/02 22:45:15;;;;;;;;;3.75;2.00;;;;;13.35;65.23;101504.84;5121555;27;45393;-60
2022/01/02 22:47:45;;;;;;;;;2.75;0.00;;;;;13.27;65.69;101505.16;5121654;27;45393;-60
2022/01/02 22:50:11;;;;;;;;;2.00;2.00;;;;;13.21;65.82;101492.00;5120734;27;45548;-59
2022/01/02 22:52:40;;;;;;;;;3.75;2.00;;;;;13.31;65.23;101497.84;5121122;27;45336;-59
2022/01/02 22:55:08;;;;;;;;;2.75;1.00;;;;;13.19;65.71;101485.78;5121436;27;45455;-60
2022/01/02 22:57:34;;;;;;;;;6.75;2.00;;;;;13.17;66.08;101505.66;5120914;27;45466;-60
2022/01/02 23:00:00;;;;;;;;;6.75;1.50;;;;;13.19;65.93;101503.75;5121383;27;45261;-60
2022/01/02 23:02:28;;;;;;;;;1.50;0.00;;;;;13.14;66.22;101501.28;5121288;27;45357;-60
2022/01/02 23:04:53;;;;;;;;;1.50;1.00;;;;;13.10;65.90;101479.94;5121112;27;45349;-60
2022/01/02 23:07:21;;;;;;;;;3.00;1.75;;;;;13.16;66.26;101502.09;5120659;27;45711;-61
2022/01/02 23:09:47;;;;;;;;;5.75;2.00;;;;;13.14;66.28;101520.13;5121093;27;45314;-60
2022/01/02 23:12:13;;;;;;;;;8.50;1.00;;;;;12.81;66.29;101494.66;5121215;27;45277;-60
2022/01/02 23:14:38;;;;;;;;;3.00;0.00;;;;;13.04;66.40;101502.59;5121306;27;45464;-59
2022/01/02 23:17:05;;;;;;;;;5.50;1.00;;;;;13.09;66.31;101497.91;5120939;27;45452;-59
2022/01/02 23:19:38;;;;;;;;;4.00;1.00;;;;;13.08;66.35;101492.59;5121100;27;45394;-60
2022/01/02 23:22:12;;;;;;;;;6.25;1.00;;;;;13.06;66.69;101508.78;5120798;27;45280;-59